createdAt,value
2018-10-21T00:02:03.236Z,72.80
2018-10-21T00:04:30.242Z,73.90
2018-10-21T00:07:01.847Z,73.40
2018-10-21T00:09:30.101Z,74.00
2018-10-21T00:14:29.201Z,73.30
2018-10-21T00:16:57.193Z,72.70
2018-10-21T00:19:24.893Z,72.90
2018-10-21T00:21:52.729Z,72.60
2018-10-21T00:24:20.257Z,75.10
2018-10-21T00:26:50.288Z,75.60
2018-10-21T00:29:17.801Z,76.50
2018-10-21T00:31:46.617Z,76.90
2018-10-21T00:34:14.022Z,75.00
2018-10-21T00:36:42.348Z,74.00
2018-10-21T00:39:11.329Z,73.90
2018-10-21T00:41:40.388Z,74.60
2018-10-21T00:44:07.129Z,73.60
2018-10-21T00:46:35.570Z,72.90
2018-10-21T00:49:03.685Z,74.90
2018-10-21T00:51:30.338Z,74.30
2018-10-21T00:53:58.780Z,74.20
2018-10-21T00:56:28.106Z,73.10
2018-10-21T00:58:56.087Z,73.00
2018-10-21T01:01:22.767Z,71.80
2018-10-21T01:03:50.939Z,74.30
2018-10-21T01:06:19.774Z,74.80
2018-10-21T01:08:47.574Z,75.80
2018-10-21T01:11:15.859Z,74.00
2018-10-21T01:13:44.810Z,74.40
2018-10-21T01:16:11.581Z,74.60
2018-10-21T01:18:39.278Z,74.00
2018-10-21T01:21:06.830Z,73.30
2018-10-21T01:23:34.636Z,72.10
2018-10-21T01:26:01.799Z,72.80
2018-10-21T01:28:30.341Z,72.20
2018-10-21T01:30:58.718Z,71.70
2018-10-21T01:33:25.536Z,71.50
2018-10-21T01:35:56.240Z,72.60
2018-10-21T01:38:24.026Z,71.80
2018-10-21T01:40:52.502Z,73.10
2018-10-21T01:43:23.337Z,72.80
2018-10-21T01:45:52.110Z,72.60
2018-10-21T01:48:20.510Z,72.90
2018-10-21T01:53:21.363Z,72.30
2018-10-21T01:55:49.685Z,73.10
2018-10-21T01:58:17.202Z,73.20
2018-10-21T02:00:48.805Z,73.80
2018-10-21T02:03:17.677Z,72.70
2018-10-21T02:05:44.923Z,72.20
2018-10-21T02:08:12.531Z,74.00
2018-10-21T02:10:39.646Z,74.00
2018-10-21T02:13:08.709Z,71.60
2018-10-21T02:15:35.505Z,71.50
2018-10-21T02:18:03.314Z,70.30
2018-10-21T02:20:30.445Z,70.10
2018-10-21T02:22:58.986Z,70.40
2018-10-21T02:25:26.148Z,70.50
2018-10-21T02:27:53.904Z,70.90
2018-10-21T02:30:21.417Z,71.20
2018-10-21T02:32:49.876Z,71.10
2018-10-21T02:35:18.244Z,71.50
2018-10-21T02:37:44.932Z,72.00
2018-10-21T02:40:15.162Z,72.20
2018-10-21T02:42:42.566Z,72.90
2018-10-21T02:45:10.680Z,73.30
2018-10-21T02:47:38.205Z,73.60
2018-10-21T02:50:05.329Z,73.90
2018-10-21T02:52:32.633Z,73.30
2018-10-21T02:55:00.700Z,74.00
2018-10-21T02:57:28.187Z,73.80
2018-10-21T02:59:55.358Z,73.80
2018-10-21T03:02:22.898Z,73.10
2018-10-21T03:04:51.429Z,73.00
2018-10-21T03:07:24.043Z,73.10
2018-10-21T03:09:52.975Z,72.90
2018-10-21T03:12:19.837Z,72.40
2018-10-21T03:14:47.903Z,73.20
2018-10-21T03:17:15.120Z,71.30
2018-10-21T03:19:42.932Z,71.30
2018-10-21T03:22:11.065Z,71.30
2018-10-21T03:24:39.252Z,71.20
2018-10-21T03:27:05.860Z,72.30
2018-10-21T03:29:32.506Z,73.00
2018-10-21T03:31:59.409Z,72.20
2018-10-21T03:34:26.397Z,70.90
2018-10-21T03:36:53.892Z,71.30
2018-10-21T03:39:20.324Z,71.30
2018-10-21T03:41:47.632Z,71.50
2018-10-21T03:44:15.198Z,71.80
2018-10-21T03:46:42.578Z,71.90
2018-10-21T03:49:09.941Z,70.90
2018-10-21T03:51:36.424Z,70.80
2018-10-21T03:54:03.951Z,70.50
2018-10-21T03:59:03.941Z,72.10
2018-10-21T04:01:30.543Z,71.60
2018-10-21T04:03:58.781Z,70.40
2018-10-21T04:06:26.382Z,70.80
2018-10-21T04:08:53.537Z,71.20
2018-10-21T04:11:20.813Z,70.60
2018-10-21T04:13:47.909Z,70.00
2018-10-21T04:16:15.212Z,70.70
2018-10-21T04:18:41.833Z,70.80
2018-10-21T04:21:09.182Z,70.10
2018-10-21T04:23:35.653Z,71.40
2018-10-21T04:26:02.963Z,71.60
2018-10-21T04:28:31.024Z,71.70
2018-10-21T04:30:58.537Z,70.60
2018-10-21T04:33:25.519Z,71.00
2018-10-21T04:35:53.013Z,70.00
2018-10-21T04:38:20.290Z,69.40
2018-10-21T04:40:47.437Z,71.20
2018-10-21T04:43:14.009Z,71.00
2018-10-21T04:45:40.806Z,72.30
2018-10-21T04:48:07.413Z,72.40
2018-10-21T04:50:35.347Z,72.60
2018-10-21T04:53:01.955Z,72.10
2018-10-21T04:55:29.743Z,71.10
2018-10-21T04:57:57.299Z,70.40
2018-10-21T05:00:24.083Z,70.20
2018-10-21T05:02:50.671Z,70.60
2018-10-21T05:05:18.949Z,70.90
2018-10-21T05:07:46.790Z,70.50
2018-10-21T05:10:14.204Z,70.50
2018-10-21T05:12:41.685Z,72.70
2018-10-21T05:15:09.314Z,73.10
2018-10-21T05:17:36.415Z,73.30
2018-10-21T05:20:04.660Z,71.90
2018-10-21T05:22:31.174Z,71.00
2018-10-21T05:24:59.008Z,71.10
2018-10-21T05:27:27.651Z,71.20
2018-10-21T05:29:54.287Z,72.50
2018-10-21T05:32:20.783Z,73.30
2018-10-21T05:37:23.072Z,72.90
2018-10-21T05:39:49.854Z,74.00
2018-10-21T05:42:16.300Z,73.00
2018-10-21T05:44:43.469Z,72.60
2018-10-21T05:47:10.778Z,73.30
2018-10-21T05:49:37.885Z,74.20
2018-10-21T05:52:05.170Z,72.90
2018-10-21T05:54:32.955Z,73.00
2018-10-21T05:57:00.195Z,73.50
2018-10-21T05:59:26.719Z,74.70
2018-10-21T06:01:54.361Z,75.40
2018-10-21T06:04:21.733Z,74.10
2018-10-21T06:06:48.966Z,73.80
2018-10-21T06:09:16.287Z,74.10
2018-10-21T06:11:43.605Z,74.50
2018-10-21T06:14:10.700Z,75.50
2018-10-21T06:16:37.165Z,75.30
2018-10-21T06:19:04.689Z,75.00
2018-10-21T06:21:31.254Z,74.00
2018-10-21T06:23:58.922Z,73.10
2018-10-21T06:26:26.648Z,72.70
2018-10-21T06:28:53.995Z,72.20
2018-10-21T06:31:22.248Z,73.50
2018-10-21T06:33:49.274Z,72.30
2018-10-21T06:36:17.049Z,71.00
2018-10-21T06:38:43.812Z,70.70
2018-10-21T06:41:11.781Z,71.10
2018-10-21T06:43:38.949Z,69.00
2018-10-21T06:46:05.397Z,66.40
2018-10-21T06:48:32.332Z,68.30
2018-10-21T06:50:59.172Z,69.10
2018-10-21T06:53:25.797Z,68.30
2018-10-21T06:55:52.264Z,67.40
2018-10-21T06:58:18.794Z,68.90
2018-10-21T07:00:45.335Z,69.40
2018-10-21T07:03:12.770Z,67.70
2018-10-21T07:05:39.663Z,68.10
2018-10-21T07:08:06.868Z,68.10
2018-10-21T07:10:34.274Z,70.10
2018-10-21T07:13:01.549Z,69.00
2018-10-21T07:15:30.198Z,69.30
2018-10-21T07:17:56.871Z,70.00
2018-10-21T07:20:23.523Z,68.70
2018-10-21T07:22:50.625Z,69.30
2018-10-21T07:25:17.757Z,69.20
2018-10-21T07:27:44.946Z,68.00
2018-10-21T07:30:11.408Z,65.20
2018-10-21T07:32:39.420Z,65.10
2018-10-21T07:35:05.905Z,64.80
2018-10-21T07:37:32.368Z,64.40
2018-10-21T07:39:59.364Z,63.80
2018-10-21T07:42:26.057Z,66.60
2018-10-21T07:44:53.480Z,67.30
2018-10-21T07:47:20.909Z,69.00
2018-10-21T07:49:47.471Z,68.40
2018-10-21T07:52:14.066Z,68.90
2018-10-21T07:54:41.665Z,69.20
2018-10-21T07:57:08.216Z,69.70
2018-10-21T07:59:35.365Z,67.00
2018-10-21T08:02:01.815Z,65.00
2018-10-21T08:04:29.097Z,65.80
2018-10-21T08:06:56.216Z,64.60
2018-10-21T08:09:22.723Z,62.70
2018-10-21T08:11:49.617Z,57.60
2018-10-21T08:14:16.908Z,58.70
2018-10-21T08:16:44.516Z,59.00
2018-10-21T08:19:15.512Z,59.00
2018-10-21T08:21:42.763Z,56.40
2018-10-21T08:24:11.381Z,58.70
2018-10-21T08:26:38.582Z,55.70
2018-10-21T08:29:05.134Z,54.70
2018-10-21T08:31:33.350Z,55.00
2018-10-21T08:34:00.480Z,53.90
2018-10-21T08:36:27.869Z,52.30
2018-10-21T08:38:55.884Z,52.50
2018-10-21T08:41:22.447Z,51.70
2018-10-21T08:43:49.249Z,53.80
2018-10-21T08:46:15.776Z,54.70
2018-10-21T08:48:42.440Z,49.50
2018-10-21T08:51:09.590Z,50.70
2018-10-21T08:53:36.741Z,51.30
2018-10-21T08:56:04.129Z,49.10
2018-10-21T09:10:24.263Z,47.40
2018-10-21T09:12:52.608Z,46.40
2018-10-21T09:15:19.742Z,47.20
2018-10-21T09:17:46.752Z,44.60
2018-10-21T09:20:14.244Z,45.30
2018-10-21T09:25:15.631Z,44.40
2018-10-21T09:27:42.955Z,45.10
2018-10-21T09:30:09.717Z,45.20
2018-10-21T09:32:36.252Z,46.10
2018-10-21T09:35:03.917Z,46.90
2018-10-21T09:37:31.228Z,46.40
2018-10-21T09:42:29.596Z,46.00
2018-10-21T09:44:57.312Z,45.40
2018-10-21T09:47:25.791Z,45.90
2018-10-21T09:49:53.756Z,45.80
2018-10-21T09:52:22.074Z,44.70
2018-10-21T09:54:49.898Z,46.50
2018-10-21T09:57:17.073Z,47.10
2018-10-21T09:59:45.134Z,45.50
2018-10-21T10:02:14.141Z,45.90
2018-10-21T10:04:43.169Z,46.70
2018-10-21T10:07:09.802Z,46.20
2018-10-21T10:09:38.340Z,46.30
2018-10-21T10:12:07.168Z,46.50
2018-10-21T10:14:35.436Z,46.90
2018-10-21T10:17:03.304Z,46.70
2018-10-21T10:19:31.346Z,46.80
2018-10-21T10:21:59.028Z,46.00
2018-10-21T10:24:28.799Z,45.60
2018-10-21T10:26:57.534Z,46.00
2018-10-21T10:29:27.265Z,45.80
2018-10-21T10:31:56.407Z,46.50
2018-10-21T10:34:23.918Z,45.90
2018-10-21T10:36:50.826Z,45.40
2018-10-21T10:39:17.877Z,45.10
2018-10-21T10:41:46.141Z,46.50
2018-10-21T10:44:14.061Z,45.50
2018-10-21T10:46:42.502Z,44.70
2018-10-21T10:51:43.151Z,46.00
2018-10-21T10:54:11.435Z,45.80
2018-10-21T10:56:38.158Z,46.10
2018-10-21T10:59:05.730Z,46.70
2018-10-21T11:01:33.805Z,46.60
2018-10-21T11:04:01.094Z,46.40
2018-10-21T11:06:29.442Z,45.00
2018-10-21T11:08:56.398Z,45.50
2018-10-21T11:11:24.960Z,45.50
2018-10-21T11:13:54.568Z,45.60
2018-10-21T11:16:22.761Z,45.20
2018-10-21T11:18:49.988Z,45.00
2018-10-21T11:21:17.718Z,46.90
2018-10-21T11:23:45.323Z,45.80
2018-10-21T11:26:13.052Z,45.20
2018-10-21T11:28:40.848Z,45.70
2018-10-21T11:31:08.384Z,46.70
2018-10-21T11:33:37.294Z,45.30
2018-10-21T11:38:36.790Z,45.50
2018-10-21T11:41:04.712Z,45.60
2018-10-21T11:43:33.420Z,43.70
2018-10-21T11:46:01.180Z,44.70
2018-10-21T11:48:29.524Z,45.20
2018-10-21T11:50:56.954Z,44.70
2018-10-21T11:53:23.505Z,44.80
2018-10-21T11:55:51.998Z,45.30
2018-10-21T11:58:19.876Z,45.20
2018-10-21T12:00:46.967Z,43.80
2018-10-21T12:03:15.089Z,45.10
2018-10-21T12:05:44.200Z,45.10
2018-10-21T12:08:13.805Z,44.00
2018-10-21T12:10:42.100Z,43.40
2018-10-21T12:13:10.209Z,43.40
2018-10-21T12:18:11.033Z,45.10
2018-10-21T12:20:38.975Z,45.70
2018-10-21T12:23:06.323Z,45.30
2018-10-21T12:25:35.360Z,44.70
2018-10-21T12:28:02.222Z,45.30
2018-10-21T12:30:28.850Z,44.30
2018-10-21T12:32:57.001Z,46.00
2018-10-21T12:35:24.157Z,45.50
2018-10-21T12:37:51.384Z,45.10
2018-10-21T12:40:19.651Z,45.40
2018-10-21T12:42:48.938Z,45.50
2018-10-21T12:45:17.186Z,45.00
2018-10-21T12:47:43.812Z,44.80
2018-10-21T12:50:11.321Z,45.50
2018-10-21T12:52:39.127Z,45.40
2018-10-21T12:57:38.964Z,45.60
2018-10-21T13:00:09.951Z,45.40
2018-10-21T13:02:37.979Z,45.00
2018-10-21T13:05:05.310Z,43.90
2018-10-21T13:07:31.941Z,45.10
2018-10-21T13:09:59.398Z,43.70
2018-10-21T13:12:29.238Z,42.90
2018-10-21T13:15:00.035Z,44.10
2018-10-21T13:17:27.442Z,44.30
2018-10-21T13:19:53.948Z,43.80
2018-10-21T13:22:23.691Z,45.50
2018-10-21T13:24:54.473Z,44.20
2018-10-21T13:27:23.237Z,44.10
2018-10-21T13:29:49.939Z,45.90
2018-10-21T13:32:16.979Z,45.20
2018-10-21T13:34:44.801Z,45.80
2018-10-21T13:37:12.225Z,45.80
2018-10-21T13:39:41.230Z,45.50
2018-10-21T13:42:09.622Z,47.00
2018-10-21T13:44:37.113Z,45.60
2018-10-21T13:47:04.085Z,47.10
2018-10-21T13:49:32.236Z,46.20
2018-10-21T13:52:01.663Z,45.40
2018-10-21T13:54:29.840Z,46.30
2018-10-21T13:56:56.645Z,46.40
2018-10-21T13:59:24.073Z,46.30
2018-10-21T14:01:51.902Z,45.20
2018-10-21T14:06:51.928Z,45.80
2018-10-21T14:09:19.419Z,47.60
2018-10-21T14:14:19.296Z,46.90
2018-10-21T14:16:46.966Z,46.40
2018-10-21T14:19:13.846Z,46.40
2018-10-21T14:21:40.935Z,47.00
2018-10-21T14:24:08.552Z,46.40
2018-10-21T14:26:36.847Z,46.30
2018-10-21T14:29:04.612Z,45.40
2018-10-21T14:31:32.953Z,44.70
2018-10-21T14:33:59.583Z,45.00
2018-10-21T14:36:27.054Z,46.10
2018-10-21T14:38:55.287Z,46.30
2018-10-21T14:41:23.017Z,45.70
2018-10-21T14:43:50.335Z,45.00
2018-10-21T14:46:18.597Z,46.30
2018-10-21T14:48:45.633Z,45.70
2018-10-21T14:51:12.987Z,45.60
2018-10-21T14:53:40.383Z,45.50
2018-10-21T14:56:07.783Z,46.70
2018-10-21T14:58:36.600Z,45.40
2018-10-21T15:01:05.381Z,45.70
2018-10-21T15:03:32.470Z,46.30
2018-10-21T15:06:00.789Z,46.10
2018-10-21T15:08:27.683Z,46.90
2018-10-21T15:10:56.872Z,46.90
2018-10-21T15:13:25.022Z,45.80
2018-10-21T15:15:52.667Z,46.80
2018-10-21T15:18:20.118Z,47.60
2018-10-21T15:20:47.874Z,47.80
2018-10-21T15:23:15.148Z,48.40
2018-10-21T15:25:43.557Z,46.80
2018-10-21T15:28:10.988Z,47.10
2018-10-21T15:30:39.086Z,47.70
2018-10-21T15:33:07.165Z,48.70
2018-10-21T15:35:38.254Z,47.80
2018-10-21T15:38:07.173Z,47.60
2018-10-21T15:40:35.203Z,47.90
2018-10-21T15:43:02.402Z,48.30
2018-10-21T15:45:30.178Z,48.00
2018-10-21T15:47:58.083Z,48.60
2018-10-21T15:50:25.583Z,48.80
2018-10-21T15:52:52.853Z,49.00
2018-10-21T15:55:20.612Z,49.00
2018-10-21T15:57:48.469Z,48.60
2018-10-21T16:00:16.370Z,49.50
2018-10-21T16:02:43.923Z,48.80
2018-10-21T16:05:11.133Z,49.60
2018-10-21T16:07:37.887Z,49.60
2018-10-21T16:10:06.618Z,49.80
2018-10-21T16:12:33.644Z,51.20
2018-10-21T16:15:00.177Z,51.40
2018-10-21T16:17:27.609Z,50.20
2018-10-21T16:19:54.450Z,50.60
2018-10-21T16:22:22.761Z,50.20
2018-10-21T16:24:50.498Z,51.20
2018-10-21T16:27:17.752Z,51.20
2018-10-21T16:29:45.493Z,51.40
2018-10-21T16:32:13.062Z,52.30
2018-10-21T16:34:41.141Z,52.30
2018-10-21T16:37:09.103Z,52.30
2018-10-21T16:39:36.510Z,50.70
2018-10-21T16:42:04.894Z,51.00
2018-10-21T16:44:31.509Z,52.10
2018-10-21T16:46:59.826Z,51.80
2018-10-21T16:49:27.686Z,53.30
2018-10-21T16:51:54.197Z,52.00
2018-10-21T16:54:21.304Z,53.20
2018-10-21T16:56:50.699Z,54.50
2018-10-21T16:59:18.071Z,54.50
2018-10-21T17:01:45.275Z,55.00
2018-10-21T17:04:12.766Z,55.00
2018-10-21T17:06:41.375Z,55.90
2018-10-21T17:09:08.896Z,56.00
2018-10-21T17:11:37.048Z,56.40
2018-10-21T17:14:04.312Z,56.90
2018-10-21T17:16:31.469Z,57.00
2018-10-21T17:18:59.841Z,57.70
2018-10-21T17:21:28.992Z,57.30
2018-10-21T17:23:56.846Z,57.00
2018-10-21T17:26:24.104Z,57.10
2018-10-21T17:28:51.567Z,57.40
2018-10-21T17:31:18.747Z,57.50
2018-10-21T17:33:47.970Z,58.00
2018-10-21T17:36:14.479Z,58.20
2018-10-21T17:38:42.499Z,58.70
2018-10-21T17:41:11.341Z,57.90
2018-10-21T17:43:39.417Z,58.30
2018-10-21T17:46:08.906Z,58.60
2018-10-21T17:48:37.827Z,58.60
2018-10-21T17:51:05.746Z,58.90
2018-10-21T17:53:35.475Z,58.40
2018-10-21T17:56:05.630Z,59.10
2018-10-21T17:58:34.190Z,59.10
2018-10-21T18:01:01.920Z,60.20
2018-10-21T18:03:30.397Z,61.00
2018-10-21T18:05:57.323Z,60.60
2018-10-21T18:08:25.566Z,60.00
2018-10-21T18:10:53.933Z,58.80
2018-10-21T18:13:20.686Z,58.80
2018-10-21T18:15:48.566Z,59.80
2018-10-21T18:18:15.733Z,60.00
2018-10-21T18:20:43.833Z,58.70
2018-10-21T18:23:11.949Z,58.50
2018-10-21T18:25:41.266Z,58.80
2018-10-21T18:30:41.411Z,59.00
2018-10-21T18:33:10.715Z,58.80
2018-10-21T18:35:37.862Z,58.70
2018-10-21T18:38:05.287Z,58.70
2018-10-21T18:40:32.402Z,58.60
2018-10-21T18:43:00.745Z,58.80
2018-10-21T18:45:29.324Z,60.60
2018-10-21T18:47:56.825Z,60.60
2018-10-21T18:50:23.552Z,60.80
2018-10-21T18:55:23.548Z,61.20
2018-10-21T18:57:52.555Z,60.80
2018-10-21T19:00:21.870Z,60.40
2018-10-21T19:02:50.166Z,61.10
2018-10-21T19:05:18.263Z,62.50
2018-10-21T19:07:47.171Z,61.90
2018-10-21T19:10:17.504Z,61.40
2018-10-21T19:12:44.795Z,61.60
2018-10-21T19:15:13.681Z,61.20
2018-10-21T19:17:41.724Z,61.90
2018-10-21T19:20:09.262Z,61.90
2018-10-21T19:22:35.775Z,61.30
2018-10-21T19:25:03.743Z,60.70
2018-10-21T19:27:31.035Z,60.80
2018-10-21T19:29:58.536Z,61.00
2018-10-21T19:32:29.073Z,61.40
2018-10-21T19:34:57.099Z,63.40
2018-10-21T19:37:24.981Z,63.80
2018-10-21T19:39:52.943Z,63.10
2018-10-21T19:42:20.785Z,63.60
2018-10-21T19:44:52.777Z,63.80
2018-10-21T19:47:20.794Z,63.20
2018-10-21T19:49:49.070Z,63.10
2018-10-21T19:52:16.106Z,64.30
2018-10-21T19:54:46.363Z,64.10
2018-10-21T19:57:15.192Z,63.70
2018-10-21T20:02:14.250Z,64.00
2018-10-21T20:04:45.491Z,64.40
2018-10-21T20:07:12.761Z,65.50
2018-10-21T20:09:41.673Z,65.90
2018-10-21T20:12:09.237Z,66.10
2018-10-21T20:14:37.782Z,66.00
2018-10-21T20:17:04.349Z,66.20
2018-10-21T20:19:31.352Z,66.70
2018-10-21T20:21:58.855Z,67.00
2018-10-21T20:24:27.667Z,66.20
2018-10-21T20:26:55.580Z,66.90
2018-10-21T20:29:23.939Z,67.10
2018-10-21T20:31:53.063Z,66.60
2018-10-21T20:34:21.126Z,67.00
2018-10-21T20:36:49.236Z,65.90
2018-10-21T20:39:17.837Z,66.40
2018-10-21T20:41:44.383Z,65.90
2018-10-21T20:44:12.861Z,66.40
2018-10-21T20:46:39.714Z,66.20
2018-10-21T20:49:07.218Z,66.40
2018-10-21T20:51:33.830Z,65.80
2018-10-21T20:54:02.549Z,66.10
2018-10-21T20:56:31.658Z,66.60
2018-10-21T20:59:00.284Z,65.70
2018-10-21T21:01:28.860Z,65.40
2018-10-21T21:03:57.526Z,65.90
2018-10-21T21:06:25.537Z,65.00
2018-10-21T21:08:52.961Z,65.50
2018-10-21T21:11:20.644Z,65.00
2018-10-21T21:13:48.159Z,65.70
2018-10-21T21:16:15.506Z,66.50
2018-10-21T21:18:42.905Z,66.40
2018-10-21T21:21:11.160Z,66.10
2018-10-21T21:23:38.598Z,66.80
2018-10-21T21:26:06.649Z,66.80
2018-10-21T21:28:34.523Z,67.90
2018-10-21T21:33:34.465Z,68.10
2018-10-21T21:36:06.404Z,67.30
2018-10-21T21:38:33.315Z,67.80
2018-10-21T21:41:00.749Z,68.00
2018-10-21T21:43:28.709Z,68.50
2018-10-21T21:48:31.573Z,67.80
2018-10-21T21:50:59.004Z,68.10
2018-10-21T21:53:26.451Z,67.90
2018-10-21T21:55:53.967Z,68.50
2018-10-21T21:58:24.441Z,67.90
2018-10-21T22:00:52.445Z,69.30
2018-10-21T22:06:09.886Z,66.60
2018-10-21T22:08:37.967Z,66.70
2018-10-21T22:11:06.679Z,66.50
2018-10-21T22:13:34.517Z,67.00
2018-10-21T22:18:33.634Z,65.90
2018-10-21T22:21:00.597Z,66.70
2018-10-21T22:23:29.334Z,67.00
2018-10-21T22:25:56.795Z,68.20
2018-10-21T22:28:24.824Z,69.10
2018-10-21T22:30:51.752Z,69.20
2018-10-21T22:33:18.780Z,68.40
2018-10-21T22:35:47.158Z,68.40
2018-10-21T22:38:19.473Z,68.50
2018-10-21T22:40:46.639Z,67.30
2018-10-21T22:43:15.485Z,67.20
2018-10-21T22:45:42.679Z,66.80
2018-10-21T22:48:11.610Z,67.50
2018-10-21T22:50:40.320Z,67.30
2018-10-21T22:53:08.200Z,66.60
2018-10-21T22:55:35.437Z,65.50
2018-10-21T22:58:03.169Z,65.30
2018-10-21T23:00:31.482Z,66.10
2018-10-21T23:02:59.150Z,66.20
2018-10-21T23:05:27.169Z,66.90
2018-10-21T23:07:56.273Z,68.40
2018-10-21T23:10:24.627Z,67.90
2018-10-21T23:12:53.370Z,67.50
2018-10-21T23:15:21.518Z,67.50
2018-10-21T23:17:49.481Z,67.80
2018-10-21T23:20:18.579Z,68.00
2018-10-21T23:22:45.985Z,66.60
2018-10-21T23:25:13.495Z,66.10
2018-10-21T23:27:40.275Z,66.40
2018-10-21T23:30:08.750Z,66.20
2018-10-21T23:32:38.516Z,66.40
2018-10-21T23:35:06.872Z,66.30
2018-10-21T23:37:35.121Z,66.50
2018-10-21T23:40:04.893Z,69.30
2018-10-21T23:42:33.083Z,68.90
2018-10-21T23:45:00.362Z,67.40
2018-10-21T23:47:27.878Z,69.00
2018-10-21T23:49:55.673Z,69.80
2018-10-21T23:52:24.060Z,70.40
2018-10-21T23:54:51.349Z,69.70
2018-10-21T23:57:17.850Z,67.90
2018-10-21T23:59:44.649Z,66.80
